Etusivu
METAR-TAF:

METAR-TAF

Lentoasemat :

Pekingin kansainvälinen lentoasema

Peking, Kiina

Leveyspiiri: 39-56N, Pituuspiiri: 116-17E, korkeus merenpinnasta: 55 m

Tämänhetkinen sää

Tämä raportti tehtiin 21 minuuttia sitten, kello 17.00 UTC
Tuuli 2 kn eri suunnista
Lämpötila -2°C
Kosteus 50%
Ilmanpaine 1027 hPa
Näkyvyys 10 km tai enemmän
ei pilviä alle 1500 m:ssä eikä cumulonimbus-pilviä

METAR: ZBAA 131700Z VRB01MPS CAVOK M02/M11 Q1027 NOSIG

Aika: 01:21 (17:21 UTC)

Sääennuste

Tämä raportti tehtiin 8 tuntia ja 11 minuuttia sitten, kello 09.10 UTC
Ennuste voimassa 13. päivästä klo 12 UTC - 14. päivään klo 12 UTC
Tuuli 8 kn pohjoisen/luoteesta
Näkyvyys 10 km tai enemmän
ei pilviä alle 1500 m:ssä eikä cumulonimbus-pilviä
Ajoittain
14. päivästä klo 04 UTC - 14. päivään klo 10 UTC
Tuuli 10 kn etelästä

TAF: ZBAA 130910Z 1312/1412 33004MPS CAVOK TX09/1407Z TNM05/21Z TEMPO 1404/1410 18005MPS

Säähavainnot ja -ennusteet yli 4000 lentoasemalta (METAR- ja TAF-raportit).

Käytössä olevat sääasemat on merkitty karttaan keltaisilla ja punaisilla pisteillä.

Aseta hiiri pisteen päälle nähdäksesi sääaseman nimen.

Klikkaa sitten nähdäksesi säähavainnot ja -ennusteet.

Kartan vaihtaminen: klikkaa mustalla rastilla varustettuja vihreitä pisteitä, niin voit zoomata sisään; viivalla varustettua vihreää pistettä, niin voit zoomata ulos tai vihreitä nuolia, niin pääset viereisille kartoille.


METAR-TAF: